createdAt,value
2019-02-07T00:09:45.648Z,93652.84
2019-02-07T00:12:13.828Z,93661.00
2019-02-07T00:15:01.065Z,93649.55
2019-02-07T00:18:18.049Z,93649.45
2019-02-07T00:21:17.583Z,93643.98
2019-02-07T00:23:45.508Z,93633.42
2019-02-07T00:26:13.834Z,93633.85
2019-02-07T00:29:22.043Z,93636.70
2019-02-07T00:32:21.188Z,93633.74
2019-02-07T00:34:49.691Z,93628.22
2019-02-07T00:37:17.294Z,93631.07
2019-02-07T00:39:45.916Z,93629.58
2019-02-07T00:45:56.252Z,93627.98
2019-02-07T00:48:24.242Z,93626.63
2019-02-07T00:50:52.507Z,93630.67
2019-02-07T00:53:21.135Z,93624.34
2019-02-07T00:55:49.384Z,93618.55
2019-02-07T00:58:17.635Z,93625.39
2019-02-07T01:00:45.945Z,93628.95
2019-02-07T01:03:54.535Z,93628.56
2019-02-07T01:12:56.438Z,93628.89
2019-02-07T01:18:44.833Z,93616.65
2019-02-07T01:21:13.336Z,93623.97
2019-02-07T01:26:42.659Z,93619.17
2019-02-07T01:29:11.177Z,93619.91
2019-02-07T01:31:38.653Z,93610.11
2019-02-07T01:34:46.894Z,93612.09
2019-02-07T01:37:14.727Z,93604.77
2019-02-07T01:39:43.368Z,93601.78
2019-02-07T01:42:11.594Z,93597.13
2019-02-07T01:44:40.167Z,93590.11
2019-02-07T01:47:20.402Z,93593.95
2019-02-07T01:49:48.978Z,93581.34
2019-02-07T01:52:16.428Z,93584.06
2019-02-07T01:55:15.826Z,93573.19
2019-02-07T02:00:42.803Z,93565.52
2019-02-07T02:04:03.178Z,93564.36
2019-02-07T02:06:30.961Z,93555.28
2019-02-07T02:08:59.223Z,93552.53
2019-02-07T02:11:27.871Z,93547.88
2019-02-07T02:17:04.665Z,93546.00
2019-02-07T02:19:33.001Z,93551.15
2019-02-07T02:31:24.286Z,93558.41
2019-02-07T02:33:52.508Z,93558.08
2019-02-07T02:36:20.745Z,93556.06
2019-02-07T02:38:48.838Z,93556.41
2019-02-07T02:41:16.305Z,93552.09
2019-02-07T02:43:44.513Z,93542.97
2019-02-07T02:46:12.854Z,93540.56
2019-02-07T02:54:55.224Z,93532.77
2019-02-07T02:57:23.142Z,93539.03
2019-02-07T03:00:31.343Z,93530.08
2019-02-07T03:03:11.093Z,93534.97
2019-02-07T03:05:58.783Z,93527.62
2019-02-07T03:09:07.408Z,93511.55
2019-02-07T03:15:07.792Z,93513.77
2019-02-07T03:17:55.609Z,93503.19
2019-02-07T03:20:54.989Z,93498.53
2019-02-07T03:24:03.371Z,93492.70
2019-02-07T03:30:11.794Z,93492.23
2019-02-07T03:32:59.673Z,93492.20
2019-02-07T03:35:39.193Z,93482.56
2019-02-07T03:38:26.664Z,93484.18
2019-02-07T03:41:17.888Z,93481.50
2019-02-07T03:44:26.142Z,93475.16
2019-02-07T03:47:14.023Z,93483.80
2019-02-07T03:50:20.146Z,93478.27
2019-02-07T03:53:28.512Z,93484.97
2019-02-07T03:56:16.219Z,93484.91
2019-02-07T03:58:53.474Z,93484.50
2019-02-07T04:07:22.802Z,93484.91
2019-02-07T04:10:22.422Z,93478.68
2019-02-07T04:13:10.163Z,93478.17
2019-02-07T04:15:50.516Z,93478.52
2019-02-07T04:18:29.321Z,93476.77
2019-02-07T04:21:25.364Z,93474.70
2019-02-07T04:27:34.191Z,93473.30
2019-02-07T04:30:33.873Z,93474.13
2019-02-07T04:33:20.971Z,93475.13
2019-02-07T04:36:09.105Z,93469.39
2019-02-07T04:38:56.426Z,93465.14
2019-02-07T04:41:36.726Z,93453.03
2019-02-07T04:47:17.430Z,93461.16
2019-02-07T04:50:24.118Z,93462.57
2019-02-07T04:53:32.651Z,93467.66
2019-02-07T04:56:20.432Z,93454.19
2019-02-07T05:02:16.745Z,93450.19
2019-02-07T05:08:24.728Z,93454.01
2019-02-07T05:11:23.997Z,93452.81
2019-02-07T05:14:10.844Z,93444.27
2019-02-07T05:17:19.105Z,93440.59
2019-02-07T05:20:26.178Z,93433.36
2019-02-07T05:23:35.221Z,93427.77
2019-02-07T05:29:24.469Z,93433.38
2019-02-07T05:35:20.996Z,93430.42
2019-02-07T05:41:36.564Z,93420.66
2019-02-07T05:44:45.156Z,93420.80
2019-02-07T05:50:53.364Z,93417.02
2019-02-07T05:53:40.759Z,93417.16
2019-02-07T05:59:49.240Z,93420.72
2019-02-07T06:02:36.900Z,93415.16
2019-02-07T06:08:26.271Z,93413.77
2019-02-07T06:11:28.895Z,93423.06
2019-02-07T06:14:16.688Z,93428.63
2019-02-07T06:17:03.794Z,93425.66
2019-02-07T06:19:51.159Z,93416.00
2019-02-07T06:22:30.822Z,93413.20
2019-02-07T06:25:18.381Z,93416.27
2019-02-07T06:27:53.422Z,93417.04
2019-02-07T06:30:30.128Z,93417.95
2019-02-07T06:33:29.261Z,93417.33
2019-02-07T06:36:09.434Z,93426.61
2019-02-07T06:38:56.726Z,93422.72
2019-02-07T06:42:05.301Z,93423.82
2019-02-07T06:45:06.171Z,93429.52
2019-02-07T06:48:00.725Z,93421.69
2019-02-07T06:51:07.462Z,93427.28
2019-02-07T06:54:16.029Z,93425.75
2019-02-07T06:57:17.021Z,93432.06
2019-02-07T07:00:24.046Z,93426.00
2019-02-07T07:03:32.960Z,93425.78
2019-02-07T07:06:20.704Z,93422.22
2019-02-07T07:09:20.390Z,93428.66
2019-02-07T07:12:26.566Z,93428.38
2019-02-07T07:15:14.331Z,93420.38
2019-02-07T07:18:03.135Z,93423.05
2019-02-07T07:21:09.890Z,93425.59
2019-02-07T07:23:57.640Z,93427.69
2019-02-07T07:26:45.015Z,93421.23
2019-02-07T07:30:04.819Z,93421.34
2019-02-07T07:32:52.445Z,93415.56
2019-02-07T07:35:40.211Z,93413.68
2019-02-07T07:44:22.818Z,93411.13
2019-02-07T07:47:10.588Z,93408.39
2019-02-07T07:50:17.376Z,93412.21
2019-02-07T07:53:04.701Z,93413.22
2019-02-07T07:55:52.621Z,93412.51
2019-02-07T08:01:42.539Z,93411.16
2019-02-07T08:04:30.344Z,93406.83
2019-02-07T08:07:38.924Z,93407.80
2019-02-07T08:10:45.414Z,93400.84
2019-02-07T08:13:32.682Z,93402.13
2019-02-07T08:16:20.406Z,93397.14
2019-02-07T08:19:07.476Z,93388.77
2019-02-07T08:21:55.261Z,93390.83
2019-02-07T08:24:30.606Z,93391.28
2019-02-07T08:27:17.982Z,93388.51
2019-02-07T08:30:18.036Z,93383.58
2019-02-07T08:33:26.560Z,93384.89
2019-02-07T08:36:13.696Z,93377.53
2019-02-07T08:39:01.335Z,93381.84
2019-02-07T08:41:49.176Z,93382.25
2019-02-07T08:44:28.209Z,93386.48
2019-02-07T08:47:15.330Z,93383.57
2019-02-07T08:50:14.521Z,93382.39
2019-02-07T08:53:02.351Z,93378.70
2019-02-07T08:55:49.688Z,93382.52
2019-02-07T08:58:37.556Z,93370.42
2019-02-07T09:01:43.957Z,93379.66
2019-02-07T09:04:51.916Z,93380.13
2019-02-07T09:07:39.642Z,93375.91
2019-02-07T09:10:45.399Z,93372.59
2019-02-07T09:13:54.032Z,93369.30
2019-02-07T09:16:41.313Z,93364.28
2019-02-07T09:19:28.738Z,93359.76
2019-02-07T09:22:16.248Z,93358.95
2019-02-07T09:28:05.722Z,93358.95
2019-02-07T09:31:12.466Z,93352.25
2019-02-07T09:33:59.937Z,93364.83
2019-02-07T09:40:08.482Z,93363.56
2019-02-07T09:43:17.088Z,93357.28
2019-02-07T09:46:04.547Z,93353.89
2019-02-07T09:52:14.779Z,93342.11
2019-02-07T09:55:02.082Z,93341.25
2019-02-07T09:57:49.122Z,93339.08
2019-02-07T10:00:55.591Z,93336.55
2019-02-07T10:03:43.287Z,93334.84
2019-02-07T10:06:30.254Z,93334.39
2019-02-07T10:12:27.122Z,93342.38
2019-02-07T10:15:14.441Z,93337.34
2019-02-07T10:18:01.669Z,93342.85
2019-02-07T10:20:49.125Z,93343.25
2019-02-07T10:23:36.885Z,93344.91
2019-02-07T10:29:26.453Z,93342.28
2019-02-07T10:32:32.993Z,93342.13
2019-02-07T10:35:22.903Z,93340.84
2019-02-07T10:38:16.701Z,93343.72
2019-02-07T10:41:04.571Z,93333.17
2019-02-07T10:43:51.882Z,93333.63
2019-02-07T10:47:00.535Z,93330.67
2019-02-07T10:49:59.739Z,93335.23
2019-02-07T10:52:47.328Z,93333.11
2019-02-07T10:55:34.822Z,93335.69
2019-02-07T10:58:22.352Z,93338.20
2019-02-07T11:04:11.028Z,93326.92
2019-02-07T11:06:57.982Z,93317.70
2019-02-07T11:09:57.591Z,93318.09
2019-02-07T11:12:39.246Z,93318.45
2019-02-07T11:15:28.650Z,93322.30
2019-02-07T11:18:16.347Z,93317.28
2019-02-07T11:21:22.487Z,93313.08
2019-02-07T11:24:09.875Z,93307.63
2019-02-07T11:27:05.769Z,93304.27
2019-02-07T11:29:53.706Z,93306.39
2019-02-07T11:32:41.110Z,93303.86
2019-02-07T11:35:29.157Z,93297.49
2019-02-07T11:38:16.858Z,93295.33
2019-02-07T11:41:04.824Z,93288.55
2019-02-07T11:47:05.532Z,93277.95
2019-02-07T11:49:56.488Z,93274.49
2019-02-07T11:52:43.855Z,93274.83
2019-02-07T11:55:31.547Z,93271.14
2019-02-07T11:58:10.187Z,93271.16
2019-02-07T12:00:58.024Z,93273.50
2019-02-07T12:04:04.883Z,93265.09
2019-02-07T12:06:51.937Z,93263.34
2019-02-07T12:09:58.656Z,93270.41
2019-02-07T12:12:45.805Z,93260.61
2019-02-07T12:15:33.648Z,93267.95
2019-02-07T12:18:21.515Z,93269.19
2019-02-07T12:21:28.267Z,93267.83
2019-02-07T12:24:16.323Z,93264.55
2019-02-07T12:27:04.136Z,93265.13
2019-02-07T12:29:50.896Z,93264.30
2019-02-07T12:32:38.375Z,93261.33
2019-02-07T12:35:48.835Z,93258.27
2019-02-07T12:41:37.745Z,93257.28
2019-02-07T12:44:46.000Z,93255.69
2019-02-07T12:47:33.746Z,93259.92
2019-02-07T12:50:39.308Z,93256.92
2019-02-07T12:53:27.166Z,93259.09
2019-02-07T12:56:24.851Z,93256.56
2019-02-07T12:59:12.318Z,93260.84
2019-02-07T13:01:59.838Z,93260.09
2019-02-07T13:05:08.073Z,93259.06
2019-02-07T13:11:01.929Z,93261.04
2019-02-07T13:13:49.310Z,93271.31
2019-02-07T13:16:36.750Z,93265.59
2019-02-07T13:19:40.553Z,93256.25
2019-02-07T13:22:47.014Z,93257.96
2019-02-07T13:25:27.098Z,93257.17
2019-02-07T13:28:14.847Z,93262.94
2019-02-07T13:31:02.007Z,93262.98
2019-02-07T13:33:48.704Z,93261.59
2019-02-07T13:36:36.630Z,93262.07
2019-02-07T13:42:45.926Z,93253.48
2019-02-07T13:45:54.199Z,93247.55
2019-02-07T13:48:30.351Z,93252.26
2019-02-07T13:51:38.991Z,93259.58
2019-02-07T13:54:47.600Z,93260.53
2019-02-07T13:57:35.312Z,93260.64
2019-02-07T14:00:34.085Z,93258.39
2019-02-07T14:03:21.891Z,93253.40
2019-02-07T14:06:09.468Z,93254.23
2019-02-07T14:08:56.851Z,93266.61
2019-02-07T14:11:55.911Z,93266.91
2019-02-07T14:14:43.409Z,93260.09
2019-02-07T14:17:31.213Z,93263.66
2019-02-07T14:20:38.068Z,93272.16
2019-02-07T14:23:46.321Z,93277.85
2019-02-07T14:29:53.918Z,93279.84
2019-02-07T14:32:41.995Z,93278.57
2019-02-07T14:38:42.234Z,93291.38
2019-02-07T14:41:28.942Z,93281.11
2019-02-07T14:44:16.358Z,93283.50
2019-02-07T14:50:14.602Z,93282.63
2019-02-07T14:52:34.726Z,93272.89
2019-02-07T14:55:14.046Z,93275.69
2019-02-07T15:01:02.614Z,93273.94
2019-02-07T15:03:30.846Z,93276.77
2019-02-07T15:09:39.548Z,93283.11
2019-02-07T15:12:48.108Z,93277.44
2019-02-07T15:21:37.947Z,93284.98
2019-02-07T15:24:54.567Z,93295.27
2019-02-07T15:30:21.152Z,93294.45
2019-02-07T15:32:49.445Z,93289.06
2019-02-07T15:38:31.340Z,93287.66
2019-02-07T15:41:18.670Z,93297.09
2019-02-07T15:44:27.286Z,93299.28
2019-02-07T15:50:08.838Z,93308.44
2019-02-07T15:52:37.132Z,93313.03
2019-02-07T15:58:07.294Z,93319.56
2019-02-07T16:01:15.976Z,93325.95
2019-02-07T16:10:25.197Z,93330.44
2019-02-07T16:12:53.407Z,93339.70
2019-02-07T16:15:21.694Z,93341.77
2019-02-07T16:17:49.984Z,93342.25
2019-02-07T16:26:40.665Z,93342.05
2019-02-07T16:29:49.278Z,93353.07
2019-02-07T16:32:29.220Z,93351.83
2019-02-07T16:34:57.926Z,93355.65
2019-02-07T16:38:06.186Z,93346.41
2019-02-07T16:43:45.642Z,93347.97
2019-02-07T16:49:34.387Z,93355.14
2019-02-07T16:52:02.638Z,93353.57
2019-02-07T17:04:14.584Z,93351.88
2019-02-07T17:06:43.081Z,93354.49
2019-02-07T17:09:30.464Z,93366.73
2019-02-07T17:12:00.950Z,93363.37
2019-02-07T17:20:56.611Z,93373.07
2019-02-07T17:24:05.255Z,93372.63
2019-02-07T17:27:04.528Z,93371.75
2019-02-07T17:29:53.469Z,93379.80
2019-02-07T17:35:53.653Z,93377.67
2019-02-07T17:41:42.074Z,93387.45
2019-02-07T17:44:10.308Z,93396.30
2019-02-07T17:46:46.918Z,93395.86
2019-02-07T17:49:26.739Z,93397.57
2019-02-07T17:52:35.397Z,93409.25
2019-02-07T17:58:54.731Z,93411.28
2019-02-07T18:01:23.084Z,93418.84
2019-02-07T18:03:51.630Z,93421.38
2019-02-07T18:09:40.723Z,93424.66
2019-02-07T18:12:49.264Z,93423.27
2019-02-07T18:18:19.212Z,93424.53
2019-02-07T18:24:36.550Z,93417.58
2019-02-07T18:27:04.773Z,93428.62
2019-02-07T18:29:32.895Z,93427.83
2019-02-07T18:32:01.125Z,93434.19
2019-02-07T18:34:29.872Z,93435.44
2019-02-07T18:36:58.198Z,93435.79
2019-02-07T18:44:48.871Z,93442.10
2019-02-07T18:49:58.823Z,93443.32
2019-02-07T18:52:26.393Z,93445.36
2019-02-07T18:54:54.329Z,93465.12
2019-02-07T19:00:34.836Z,93470.69
2019-02-07T19:03:14.828Z,93474.47
2019-02-07T19:11:56.977Z,93471.16
2019-02-07T19:14:25.270Z,93486.28
2019-02-07T19:17:33.903Z,93496.45
2019-02-07T19:23:23.628Z,93492.27
2019-02-07T19:25:51.635Z,93493.55
2019-02-07T19:31:01.515Z,93494.00
2019-02-07T19:33:29.504Z,93507.52
2019-02-07T19:38:58.088Z,93513.39
2019-02-07T19:50:54.285Z,93517.20
2019-02-07T19:53:22.684Z,93524.73
2019-02-07T20:02:32.088Z,93522.25
2019-02-07T20:05:12.103Z,93528.60
2019-02-07T20:10:53.298Z,93529.80
2019-02-07T20:13:21.263Z,93529.64
2019-02-07T20:19:32.171Z,93530.31
2019-02-07T20:21:59.733Z,93534.48
2019-02-07T20:24:45.795Z,93535.44
2019-02-07T20:30:28.233Z,93536.24
2019-02-07T20:36:18.229Z,93553.17
2019-02-07T20:39:27.164Z,93554.41
2019-02-07T20:54:48.263Z,93565.09
2019-02-07T20:57:56.633Z,93568.49
2019-02-07T21:03:50.112Z,93569.83
2019-02-07T21:18:29.116Z,93582.23
2019-02-07T21:21:09.303Z,93589.48
2019-02-07T21:23:49.462Z,93587.38
2019-02-07T21:26:58.063Z,93589.52
2019-02-07T21:29:26.024Z,93582.66
2019-02-07T21:31:54.006Z,93586.78
2019-02-07T21:34:22.415Z,93588.77
2019-02-07T21:36:50.464Z,93598.11
2019-02-07T21:42:20.312Z,93608.70
2019-02-07T21:45:28.580Z,93608.25
2019-02-07T21:51:09.730Z,93612.23
2019-02-07T21:56:58.134Z,93612.78
2019-02-07T21:59:38.671Z,93610.95
2019-02-07T22:02:46.960Z,93610.94
2019-02-07T22:11:37.188Z,93618.87
2019-02-07T22:14:45.805Z,93622.55
2019-02-07T22:17:14.062Z,93628.45
2019-02-07T22:19:42.574Z,93632.72
2019-02-07T22:22:49.000Z,93634.90
2019-02-07T22:27:51.930Z,93648.80
2019-02-07T22:30:39.130Z,93664.48
2019-02-07T22:36:20.622Z,93673.43
2019-02-07T22:42:09.479Z,93677.28
2019-02-07T22:47:58.119Z,93677.24
2019-02-07T22:53:46.805Z,93683.56
2019-02-07T22:56:15.100Z,93685.72
2019-02-07T22:58:42.328Z,93686.54
2019-02-07T23:01:48.944Z,93694.97
2019-02-07T23:04:18.174Z,93693.71
2019-02-07T23:07:26.799Z,93686.67
2019-02-07T23:10:14.111Z,93692.58
2019-02-07T23:12:42.381Z,93701.86
2019-02-07T23:15:22.910Z,93700.59
2019-02-07T23:17:50.807Z,93698.09
2019-02-07T23:23:59.210Z,93702.75
2019-02-07T23:26:27.835Z,93708.67
2019-02-07T23:28:56.172Z,93705.73
2019-02-07T23:34:26.633Z,93704.50
2019-02-07T23:36:54.587Z,93706.61
2019-02-07T23:39:23.294Z,93709.52
2019-02-07T23:48:02.439Z,93714.95
2019-02-07T23:50:31.021Z,93721.64
2019-02-07T23:52:59.608Z,93733.34
2019-02-07T23:58:28.117Z,93732.02
